sensor_id;sensor_type;location;lat;lon;timestamp;P1;durP1;ratioP1;P2;durP2;ratioP2
20365;SDS011;10341;49.894;8.822;2024-03-08T00:03:00;22.67;;;12.48;;
20365;SDS011;10341;49.894;8.822;2024-03-08T00:08:21;27.00;;;14.25;;
20365;SDS011;10341;49.894;8.822;2024-03-08T00:13:40;27.38;;;14.75;;
20365;SDS011;10341;49.894;8.822;2024-03-08T00:19:01;26.40;;;14.30;;
20365;SDS011;10341;49.894;8.822;2024-03-08T00:24:20;26.13;;;13.98;;
20365;SDS011;10341;49.894;8.822;2024-03-08T00:29:43;26.85;;;14.30;;
20365;SDS011;10341;49.894;8.822;2024-03-08T00:35:04;25.30;;;13.25;;
20365;SDS011;10341;49.894;8.822;2024-03-08T00:40:25;27.00;;;13.55;;
20365;SDS011;10341;49.894;8.822;2024-03-08T00:45:45;24.15;;;13.20;;
20365;SDS011;10341;49.894;8.822;2024-03-08T00:51:04;25.67;;;12.77;;
20365;SDS011;10341;49.894;8.822;2024-03-08T00:56:24;25.85;;;14.05;;
20365;SDS011;10341;49.894;8.822;2024-03-08T01:07:04;24.95;;;12.52;;
20365;SDS011;10341;49.894;8.822;2024-03-08T01:17:43;27.23;;;12.55;;
20365;SDS011;10341;49.894;8.822;2024-03-08T01:28:26;24.95;;;12.52;;
20365;SDS011;10341;49.894;8.822;2024-03-08T01:33:45;25.58;;;13.68;;
20365;SDS011;10341;49.894;8.822;2024-03-08T01:39:04;26.17;;;13.65;;
20365;SDS011;10341;49.894;8.822;2024-03-08T01:44:26;27.77;;;13.30;;
20365;SDS011;10341;49.894;8.822;2024-03-08T01:55:06;24.00;;;13.20;;
20365;SDS011;10341;49.894;8.822;2024-03-08T02:00:26;28.55;;;13.50;;
20365;SDS011;10341;49.894;8.822;2024-03-08T02:05:48;25.33;;;13.20;;
20365;SDS011;10341;49.894;8.822;2024-03-08T02:11:08;24.92;;;12.60;;
20365;SDS011;10341;49.894;8.822;2024-03-08T02:16:27;30.15;;;14.48;;
20365;SDS011;10341;49.894;8.822;2024-03-08T02:21:46;30.75;;;14.93;;
20365;SDS011;10341;49.894;8.822;2024-03-08T02:27:06;28.98;;;14.00;;
20365;SDS011;10341;49.894;8.822;2024-03-08T02:32:25;29.60;;;14.60;;
20365;SDS011;10341;49.894;8.822;2024-03-08T02:37:44;27.75;;;13.95;;
20365;SDS011;10341;49.894;8.822;2024-03-08T02:43:06;26.65;;;13.65;;
20365;SDS011;10341;49.894;8.822;2024-03-08T02:48:25;26.27;;;12.98;;
20365;SDS011;10341;49.894;8.822;2024-03-08T02:53:44;25.23;;;13.18;;
20365;SDS011;10341;49.894;8.822;2024-03-08T02:59:03;26.95;;;12.73;;
20365;SDS011;10341;49.894;8.822;2024-03-08T03:04:23;26.17;;;13.45;;
20365;SDS011;10341;49.894;8.822;2024-03-08T03:09:41;29.13;;;14.20;;
20365;SDS011;10341;49.894;8.822;2024-03-08T03:15:01;29.25;;;14.63;;
20365;SDS011;10341;49.894;8.822;2024-03-08T03:20:20;30.75;;;14.95;;
20365;SDS011;10341;49.894;8.822;2024-03-08T03:25:45;32.55;;;15.23;;
20365;SDS011;10341;49.894;8.822;2024-03-08T03:31:08;30.55;;;15.07;;
20365;SDS011;10341;49.894;8.822;2024-03-08T03:36:33;27.55;;;13.27;;
20365;SDS011;10341;49.894;8.822;2024-03-08T03:41:54;31.13;;;13.75;;
20365;SDS011;10341;49.894;8.822;2024-03-08T03:47:13;32.78;;;14.35;;
20365;SDS011;10341;49.894;8.822;2024-03-08T03:52:35;30.85;;;14.32;;
20365;SDS011;10341;49.894;8.822;2024-03-08T04:03:14;29.95;;;14.50;;
20365;SDS011;10341;49.894;8.822;2024-03-08T04:08:33;27.80;;;13.73;;
20365;SDS011;10341;49.894;8.822;2024-03-08T04:13:52;30.10;;;14.43;;
20365;SDS011;10341;49.894;8.822;2024-03-08T04:24:32;32.10;;;14.85;;
20365;SDS011;10341;49.894;8.822;2024-03-08T04:29:52;30.52;;;15.25;;
20365;SDS011;10341;49.894;8.822;2024-03-08T04:35:11;33.55;;;15.40;;
20365;SDS011;10341;49.894;8.822;2024-03-08T04:45:50;31.60;;;14.52;;
20365;SDS011;10341;49.894;8.822;2024-03-08T04:51:09;29.58;;;15.00;;
20365;SDS011;10341;49.894;8.822;2024-03-08T04:56:29;32.78;;;15.70;;
20365;SDS011;10341;49.894;8.822;2024-03-08T05:01:48;30.48;;;14.75;;
20365;SDS011;10341;49.894;8.822;2024-03-08T05:07:07;34.47;;;15.35;;
20365;SDS011;10341;49.894;8.822;2024-03-08T05:12:28;29.48;;;14.38;;
20365;SDS011;10341;49.894;8.822;2024-03-08T05:23:07;28.65;;;14.27;;
20365;SDS011;10341;49.894;8.822;2024-03-08T05:28:27;32.78;;;14.88;;
20365;SDS011;10341;49.894;8.822;2024-03-08T05:33:46;32.58;;;14.90;;
20365;SDS011;10341;49.894;8.822;2024-03-08T05:39:06;32.22;;;16.05;;
20365;SDS011;10341;49.894;8.822;2024-03-08T05:44:26;33.67;;;15.73;;
20365;SDS011;10341;49.894;8.822;2024-03-08T05:49:47;31.35;;;15.32;;
20365;SDS011;10341;49.894;8.822;2024-03-08T05:55:06;33.15;;;15.75;;
20365;SDS011;10341;49.894;8.822;2024-03-08T06:00:28;32.40;;;15.90;;
20365;SDS011;10341;49.894;8.822;2024-03-08T06:05:49;44.13;;;17.15;;
20365;SDS011;10341;49.894;8.822;2024-03-08T06:11:09;40.70;;;18.52;;
20365;SDS011;10341;49.894;8.822;2024-03-08T06:16:29;36.97;;;17.33;;
20365;SDS011;10341;49.894;8.822;2024-03-08T06:27:08;40.57;;;17.90;;
20365;SDS011;10341;49.894;8.822;2024-03-08T06:32:28;34.55;;;16.88;;
20365;SDS011;10341;49.894;8.822;2024-03-08T06:37:48;36.45;;;17.38;;
20365;SDS011;10341;49.894;8.822;2024-03-08T06:43:07;37.08;;;17.20;;
20365;SDS011;10341;49.894;8.822;2024-03-08T06:48:27;35.30;;;17.45;;
20365;SDS011;10341;49.894;8.822;2024-03-08T06:53:48;32.22;;;16.33;;
20365;SDS011;10341;49.894;8.822;2024-03-08T07:04:29;35.58;;;16.95;;
20365;SDS011;10341;49.894;8.822;2024-03-08T07:09:50;33.55;;;15.77;;
20365;SDS011;10341;49.894;8.822;2024-03-08T07:15:10;34.22;;;17.20;;
20365;SDS011;10341;49.894;8.822;2024-03-08T07:20:32;32.83;;;16.42;;
20365;SDS011;10341;49.894;8.822;2024-03-08T07:25:51;35.42;;;16.73;;
20365;SDS011;10341;49.894;8.822;2024-03-08T07:31:10;31.70;;;16.05;;
20365;SDS011;10341;49.894;8.822;2024-03-08T07:36:35;30.75;;;15.43;;
20365;SDS011;10341;49.894;8.822;2024-03-08T07:41:55;28.45;;;14.93;;
20365;SDS011;10341;49.894;8.822;2024-03-08T07:47:15;30.83;;;16.10;;
20365;SDS011;10341;49.894;8.822;2024-03-08T07:52:36;28.13;;;15.35;;
20365;SDS011;10341;49.894;8.822;2024-03-08T07:57:55;28.38;;;15.60;;
20365;SDS011;10341;49.894;8.822;2024-03-08T08:03:14;30.17;;;15.20;;
20365;SDS011;10341;49.894;8.822;2024-03-08T08:08:34;27.98;;;15.57;;
20365;SDS011;10341;49.894;8.822;2024-03-08T08:13:56;28.88;;;15.50;;
20365;SDS011;10341;49.894;8.822;2024-03-08T08:19:15;25.60;;;14.52;;
20365;SDS011;10341;49.894;8.822;2024-03-08T08:24:35;22.02;;;13.25;;
20365;SDS011;10341;49.894;8.822;2024-03-08T08:29:55;25.33;;;14.10;;
20365;SDS011;10341;49.894;8.822;2024-03-08T08:35:14;22.17;;;13.00;;
20365;SDS011;10341;49.894;8.822;2024-03-08T08:40:34;23.38;;;14.27;;
20365;SDS011;10341;49.894;8.822;2024-03-08T08:45:55;24.60;;;13.25;;
20365;SDS011;10341;49.894;8.822;2024-03-08T08:51:15;22.60;;;13.00;;
20365;SDS011;10341;49.894;8.822;2024-03-08T08:56:35;21.75;;;13.10;;
20365;SDS011;10341;49.894;8.822;2024-03-08T09:01:54;20.38;;;12.57;;
20365;SDS011;10341;49.894;8.822;2024-03-08T09:07:14;22.25;;;13.02;;
20365;SDS011;10341;49.894;8.822;2024-03-08T09:12:35;21.13;;;12.63;;
20365;SDS011;10341;49.894;8.822;2024-03-08T09:17:55;19.40;;;12.32;;
20365;SDS011;10341;49.894;8.822;2024-03-08T09:23:14;21.15;;;12.70;;
20365;SDS011;10341;49.894;8.822;2024-03-08T09:28:35;18.25;;;11.60;;
20365;SDS011;10341;49.894;8.822;2024-03-08T09:33:55;19.90;;;12.30;;
20365;SDS011;10341;49.894;8.822;2024-03-08T09:39:14;18.67;;;11.77;;
20365;SDS011;10341;49.894;8.822;2024-03-08T09:44:35;21.80;;;13.02;;
20365;SDS011;10341;49.894;8.822;2024-03-08T09:55:15;17.95;;;11.88;;
20365;SDS011;10341;49.894;8.822;2024-03-08T10:00:36;18.27;;;12.40;;
20365;SDS011;10341;49.894;8.822;2024-03-08T10:05:56;18.80;;;12.05;;
20365;SDS011;10341;49.894;8.822;2024-03-08T10:11:19;19.35;;;12.02;;
20365;SDS011;10341;49.894;8.822;2024-03-08T10:16:38;19.27;;;12.43;;
20365;SDS011;10341;49.894;8.822;2024-03-08T10:21:58;21.00;;;13.00;;
20365;SDS011;10341;49.894;8.822;2024-03-08T10:27:18;22.30;;;12.95;;
20365;SDS011;10341;49.894;8.822;2024-03-08T10:32:37;19.48;;;12.70;;
20365;SDS011;10341;49.894;8.822;2024-03-08T10:37:56;20.15;;;12.98;;
20365;SDS011;10341;49.894;8.822;2024-03-08T10:43:19;19.73;;;12.18;;
20365;SDS011;10341;49.894;8.822;2024-03-08T10:48:44;20.45;;;12.75;;
20365;SDS011;10341;49.894;8.822;2024-03-08T10:54:05;17.13;;;10.90;;
20365;SDS011;10341;49.894;8.822;2024-03-08T10:59:26;16.10;;;11.07;;
20365;SDS011;10341;49.894;8.822;2024-03-08T11:04:47;18.35;;;12.10;;
20365;SDS011;10341;49.894;8.822;2024-03-08T11:10:18;18.83;;;11.93;;
20365;SDS011;10341;49.894;8.822;2024-03-08T11:15:38;18.23;;;12.15;;
20365;SDS011;10341;49.894;8.822;2024-03-08T11:20:58;19.70;;;11.48;;
20365;SDS011;10341;49.894;8.822;2024-03-08T11:26:22;16.92;;;11.63;;
20365;SDS011;10341;49.894;8.822;2024-03-08T11:31:43;18.65;;;13.00;;
20365;SDS011;10341;49.894;8.822;2024-03-08T11:37:05;16.65;;;11.05;;
20365;SDS011;10341;49.894;8.822;2024-03-08T11:42:31;19.27;;;12.27;;
20365;SDS011;10341;49.894;8.822;2024-03-08T11:47:51;18.60;;;12.40;;
20365;SDS011;10341;49.894;8.822;2024-03-08T11:53:11;16.85;;;11.48;;
20365;SDS011;10341;49.894;8.822;2024-03-08T11:58:32;19.08;;;11.70;;
20365;SDS011;10341;49.894;8.822;2024-03-08T12:03:55;18.42;;;12.10;;
20365;SDS011;10341;49.894;8.822;2024-03-08T12:09:18;17.38;;;11.57;;
20365;SDS011;10341;49.894;8.822;2024-03-08T12:14:42;18.60;;;11.38;;
20365;SDS011;10341;49.894;8.822;2024-03-08T12:20:19;18.13;;;11.95;;
20365;SDS011;10341;49.894;8.822;2024-03-08T12:25:42;18.85;;;12.55;;
20365;SDS011;10341;49.894;8.822;2024-03-08T12:31:02;19.60;;;12.45;;
20365;SDS011;10341;49.894;8.822;2024-03-08T12:36:21;17.48;;;11.77;;
20365;SDS011;10341;49.894;8.822;2024-03-08T12:41:41;20.20;;;12.45;;
20365;SDS011;10341;49.894;8.822;2024-03-08T12:47:00;20.42;;;12.23;;
20365;SDS011;10341;49.894;8.822;2024-03-08T12:52:20;19.77;;;12.63;;
20365;SDS011;10341;49.894;8.822;2024-03-08T12:57:39;17.90;;;11.60;;
20365;SDS011;10341;49.894;8.822;2024-03-08T13:02:58;17.67;;;12.25;;
20365;SDS011;10341;49.894;8.822;2024-03-08T13:08:17;21.13;;;12.30;;
20365;SDS011;10341;49.894;8.822;2024-03-08T13:13:37;18.95;;;12.50;;
20365;SDS011;10341;49.894;8.822;2024-03-08T13:18:58;20.60;;;13.32;;
20365;SDS011;10341;49.894;8.822;2024-03-08T13:24:18;18.50;;;12.27;;
20365;SDS011;10341;49.894;8.822;2024-03-08T13:29:37;19.55;;;12.77;;
20365;SDS011;10341;49.894;8.822;2024-03-08T13:34:57;19.83;;;12.02;;
20365;SDS011;10341;49.894;8.822;2024-03-08T13:40:17;20.88;;;11.75;;
20365;SDS011;10341;49.894;8.822;2024-03-08T13:45:39;19.13;;;11.60;;
20365;SDS011;10341;49.894;8.822;2024-03-08T13:51:00;19.75;;;12.57;;
20365;SDS011;10341;49.894;8.822;2024-03-08T13:56:20;19.58;;;12.38;;
20365;SDS011;10341;49.894;8.822;2024-03-08T14:07:00;19.20;;;11.35;;
20365;SDS011;10341;49.894;8.822;2024-03-08T14:12:22;17.65;;;11.38;;
20365;SDS011;10341;49.894;8.822;2024-03-08T14:17:45;16.02;;;11.15;;
20365;SDS011;10341;49.894;8.822;2024-03-08T14:23:11;19.67;;;11.63;;
20365;SDS011;10341;49.894;8.822;2024-03-08T14:28:31;18.00;;;11.52;;
20365;SDS011;10341;49.894;8.822;2024-03-08T14:33:51;17.42;;;10.98;;
20365;SDS011;10341;49.894;8.822;2024-03-08T14:39:11;17.25;;;11.23;;
20365;SDS011;10341;49.894;8.822;2024-03-08T14:44:31;15.93;;;10.48;;
20365;SDS011;10341;49.894;8.822;2024-03-08T14:49:50;17.90;;;10.55;;
20365;SDS011;10341;49.894;8.822;2024-03-08T14:55:09;17.90;;;10.85;;
20365;SDS011;10341;49.894;8.822;2024-03-08T15:00:33;16.50;;;10.10;;
20365;SDS011;10341;49.894;8.822;2024-03-08T15:05:53;15.57;;;10.10;;
20365;SDS011;10341;49.894;8.822;2024-03-08T15:11:12;17.00;;;10.23;;
20365;SDS011;10341;49.894;8.822;2024-03-08T15:16:42;17.93;;;9.93;;
20365;SDS011;10341;49.894;8.822;2024-03-08T15:22:02;14.95;;;9.82;;
20365;SDS011;10341;49.894;8.822;2024-03-08T15:27:21;13.77;;;8.75;;
20365;SDS011;10341;49.894;8.822;2024-03-08T15:32:46;14.80;;;9.32;;
20365;SDS011;10341;49.894;8.822;2024-03-08T15:38:06;16.38;;;9.43;;
20365;SDS011;10341;49.894;8.822;2024-03-08T15:48:45;17.48;;;9.65;;
20365;SDS011;10341;49.894;8.822;2024-03-08T15:59:26;16.15;;;9.20;;
20365;SDS011;10341;49.894;8.822;2024-03-08T16:04:47;15.23;;;8.30;;
20365;SDS011;10341;49.894;8.822;2024-03-08T16:10:06;13.95;;;8.55;;
20365;SDS011;10341;49.894;8.822;2024-03-08T16:15:28;14.98;;;8.57;;
20365;SDS011;10341;49.894;8.822;2024-03-08T16:20:52;16.23;;;8.13;;
20365;SDS011;10341;49.894;8.822;2024-03-08T16:26:12;15.27;;;8.00;;
20365;SDS011;10341;49.894;8.822;2024-03-08T16:31:32;14.55;;;8.40;;
20365;SDS011;10341;49.894;8.822;2024-03-08T16:36:51;15.68;;;8.48;;
20365;SDS011;10341;49.894;8.822;2024-03-08T16:42:11;12.95;;;8.32;;
20365;SDS011;10341;49.894;8.822;2024-03-08T16:47:30;12.18;;;7.22;;
20365;SDS011;10341;49.894;8.822;2024-03-08T16:52:49;11.32;;;6.88;;
20365;SDS011;10341;49.894;8.822;2024-03-08T16:58:12;13.82;;;7.20;;
20365;SDS011;10341;49.894;8.822;2024-03-08T17:03:34;11.05;;;6.35;;
20365;SDS011;10341;49.894;8.822;2024-03-08T17:08:56;12.57;;;7.68;;
20365;SDS011;10341;49.894;8.822;2024-03-08T17:14:15;12.55;;;7.03;;
20365;SDS011;10341;49.894;8.822;2024-03-08T17:19:37;11.00;;;5.82;;
20365;SDS011;10341;49.894;8.822;2024-03-08T17:24:57;9.77;;;5.75;;
20365;SDS011;10341;49.894;8.822;2024-03-08T17:30:18;10.68;;;6.65;;
20365;SDS011;10341;49.894;8.822;2024-03-08T17:35:41;12.10;;;7.18;;
20365;SDS011;10341;49.894;8.822;2024-03-08T17:41:00;11.95;;;7.20;;
20365;SDS011;10341;49.894;8.822;2024-03-08T17:46:20;12.85;;;7.22;;
20365;SDS011;10341;49.894;8.822;2024-03-08T17:51:40;14.35;;;7.47;;
20365;SDS011;10341;49.894;8.822;2024-03-08T17:57:00;12.05;;;6.45;;
20365;SDS011;10341;49.894;8.822;2024-03-08T18:02:20;12.05;;;6.82;;
20365;SDS011;10341;49.894;8.822;2024-03-08T18:07:40;13.60;;;7.32;;
20365;SDS011;10341;49.894;8.822;2024-03-08T18:13:03;14.65;;;7.68;;
20365;SDS011;10341;49.894;8.822;2024-03-08T18:18:42;14.48;;;7.72;;
20365;SDS011;10341;49.894;8.822;2024-03-08T18:24:05;14.48;;;8.68;;
20365;SDS011;10341;49.894;8.822;2024-03-08T18:29:24;16.45;;;9.05;;
20365;SDS011;10341;49.894;8.822;2024-03-08T18:34:44;17.50;;;8.97;;
20365;SDS011;10341;49.894;8.822;2024-03-08T18:40:03;17.85;;;9.25;;
20365;SDS011;10341;49.894;8.822;2024-03-08T18:45:23;19.33;;;10.38;;
20365;SDS011;10341;49.894;8.822;2024-03-08T18:50:43;17.55;;;10.30;;
20365;SDS011;10341;49.894;8.822;2024-03-08T18:56:04;20.38;;;10.20;;
20365;SDS011;10341;49.894;8.822;2024-03-08T19:01:25;17.40;;;9.50;;
20365;SDS011;10341;49.894;8.822;2024-03-08T19:06:48;18.00;;;10.10;;
20365;SDS011;10341;49.894;8.822;2024-03-08T19:12:10;17.45;;;9.52;;
20365;SDS011;10341;49.894;8.822;2024-03-08T19:17:32;18.17;;;9.55;;
20365;SDS011;10341;49.894;8.822;2024-03-08T19:22:53;20.33;;;10.70;;
20365;SDS011;10341;49.894;8.822;2024-03-08T19:28:13;23.15;;;11.52;;
20365;SDS011;10341;49.894;8.822;2024-03-08T19:33:34;31.63;;;16.80;;
20365;SDS011;10341;49.894;8.822;2024-03-08T19:38:54;23.35;;;12.02;;
20365;SDS011;10341;49.894;8.822;2024-03-08T19:44:14;21.23;;;11.23;;
20365;SDS011;10341;49.894;8.822;2024-03-08T19:49:33;19.67;;;10.95;;
20365;SDS011;10341;49.894;8.822;2024-03-08T19:54:54;20.27;;;10.30;;
20365;SDS011;10341;49.894;8.822;2024-03-08T20:00:18;21.27;;;9.93;;
20365;SDS011;10341;49.894;8.822;2024-03-08T20:05:47;14.57;;;8.40;;
20365;SDS011;10341;49.894;8.822;2024-03-08T20:11:07;16.13;;;8.90;;
20365;SDS011;10341;49.894;8.822;2024-03-08T20:16:28;16.92;;;9.18;;
20365;SDS011;10341;49.894;8.822;2024-03-08T20:21:47;19.35;;;10.75;;
20365;SDS011;10341;49.894;8.822;2024-03-08T20:27:07;20.33;;;11.45;;
20365;SDS011;10341;49.894;8.822;2024-03-08T20:32:27;20.00;;;10.60;;
20365;SDS011;10341;49.894;8.822;2024-03-08T20:37:47;16.87;;;8.90;;
20365;SDS011;10341;49.894;8.822;2024-03-08T20:43:08;16.70;;;9.82;;
20365;SDS011;10341;49.894;8.822;2024-03-08T20:48:33;22.65;;;12.35;;
20365;SDS011;10341;49.894;8.822;2024-03-08T20:53:57;19.13;;;10.70;;
20365;SDS011;10341;49.894;8.822;2024-03-08T20:59:18;18.20;;;9.95;;
20365;SDS011;10341;49.894;8.822;2024-03-08T21:04:38;18.90;;;9.77;;
20365;SDS011;10341;49.894;8.822;2024-03-08T21:10:01;22.10;;;11.48;;
20365;SDS011;10341;49.894;8.822;2024-03-08T21:15:21;20.05;;;10.93;;
20365;SDS011;10341;49.894;8.822;2024-03-08T21:20:41;19.27;;;10.63;;
20365;SDS011;10341;49.894;8.822;2024-03-08T21:26:01;18.60;;;10.13;;
20365;SDS011;10341;49.894;8.822;2024-03-08T21:31:20;18.17;;;10.05;;
20365;SDS011;10341;49.894;8.822;2024-03-08T21:36:42;17.90;;;9.93;;
20365;SDS011;10341;49.894;8.822;2024-03-08T21:42:03;16.73;;;9.65;;
20365;SDS011;10341;49.894;8.822;2024-03-08T21:47:23;17.50;;;9.93;;
20365;SDS011;10341;49.894;8.822;2024-03-08T21:58:02;18.02;;;9.60;;
20365;SDS011;10341;49.894;8.822;2024-03-08T22:03:23;18.38;;;9.77;;
20365;SDS011;10341;49.894;8.822;2024-03-08T22:08:46;20.70;;;10.13;;
20365;SDS011;10341;49.894;8.822;2024-03-08T22:14:05;17.70;;;9.70;;
20365;SDS011;10341;49.894;8.822;2024-03-08T22:19:26;19.75;;;10.10;;
20365;SDS011;10341;49.894;8.822;2024-03-08T22:24:46;21.13;;;11.13;;
20365;SDS011;10341;49.894;8.822;2024-03-08T22:30:12;19.50;;;10.23;;
20365;SDS011;10341;49.894;8.822;2024-03-08T22:35:36;20.55;;;10.90;;
20365;SDS011;10341;49.894;8.822;2024-03-08T22:40:56;21.40;;;10.75;;
20365;SDS011;10341;49.894;8.822;2024-03-08T22:46:17;20.67;;;10.65;;
20365;SDS011;10341;49.894;8.822;2024-03-08T22:51:36;21.60;;;11.43;;
20365;SDS011;10341;49.894;8.822;2024-03-08T22:56:55;21.03;;;10.70;;
20365;SDS011;10341;49.894;8.822;2024-03-08T23:02:16;20.20;;;10.90;;
20365;SDS011;10341;49.894;8.822;2024-03-08T23:07:38;21.38;;;10.90;;
20365;SDS011;10341;49.894;8.822;2024-03-08T23:12:58;20.25;;;10.23;;
20365;SDS011;10341;49.894;8.822;2024-03-08T23:18:17;19.05;;;10.32;;
20365;SDS011;10341;49.894;8.822;2024-03-08T23:23:38;19.83;;;10.88;;
20365;SDS011;10341;49.894;8.822;2024-03-08T23:34:18;22.47;;;11.37;;
20365;SDS011;10341;49.894;8.822;2024-03-08T23:39:37;22.87;;;10.67;;
20365;SDS011;10341;49.894;8.822;2024-03-08T23:44:56;21.58;;;10.90;;
20365;SDS011;10341;49.894;8.822;2024-03-08T23:55:41;20.40;;;10.70;;
